Cedar City, UT

5:43 AM MDT on August 27, 2016 (GMT -0600)
Kayenta | | Change Station

Elev 5846 ft 37.67 °N, 113.07 °W | Updated 10 minutes ago

Scattered Clouds
Scattered Clouds
53.0 °F
Feels Like 53.0 °F
N
0.0
Wind Variable Wind from ESE

Today
High -- | Low -- °F
--% Chance of Precip.
Yesterday
High -- | Low -- °F
Precip. -- in
Pressure 29.95 in
Visibility 10.0 miles
Clouds Few 10000 ft
Scattered Clouds 12000 ft
Dew Point 47 °F
Humidity 80%
Rainfall 0.15 in
Snow Depth Not available.
6:58 AM 8:08 PM
Waning Crescent, 25% visible
METAR KCDC 271053Z AUTO 21008G17KT 170V230 10SM FEW100 SCT120 12/09 A3013 RMK AO2 RAE40 SLP140 P0002 T01170089
Pressure 29.95 in
Visibility 10.0 miles
Clouds Few 10000 ft
Scattered Clouds 12000 ft
Dew Point 47 °F
Humidity 80%
Rainfall 0.15 in
Snow Depth Not available.
6:58 AM 8:08 PM
Waning Crescent, 25% visible
METAR KCDC 271053Z AUTO 21008G17KT 170V230 10SM FEW100 SCT120 12/09 A3013 RMK AO2 RAE40 SLP140 P0002 T01170089

10-Day Weather Forecast

Almanac

Astronomy

Aug. 27, 2016 Rise Set
Actual Time
Civil Twilight
Nautical Twilight
Astronomical Twilight
Moon
Length of Visible Light
Length of Day
Tomorrow will be .
, % of the Moon is Illuminated

Today's Extremes

State Highs State Lows

Community

WunderPhotos

Upload Photos

1,935,325 photos uploaded!

WunderBlog® & News

Nearby

Air Quality

  Air Quality AQ Index Pollutant
Not available.

Snow Depth

Station Depth Elevation

Earthquake Activity

City Distance Mag. Time & Date
Minimum magnitude displayed is 2.5.

Coastal Water Temperatures

Place Temperature

Stations

Nearby Weather Stations

Station Location Temp. Windchill Dew Point Humidity Wind Precip. Elev Updated Type
                   

Watches & Warnings

There are currently no watches in effect.